Meridian — EI6085 — position and weather

sailwx.info

Track history (hours):
 
Tides and Currents Weather Stations Pressure Air Temp Water Temp Dewpoint Dewpoint Depression Visibility Wind Speed Wind Dir Waves Ship Positions

Meridian

Last reported at 2014-Oct-29 16:28 UTC. Time now 2014-Oct-31 06:18 UTC.
Position N 54°36' W 008°27'.

Length 12 m.

Type: Fishing. MMSI: 250107450.

Date/timePositionNaut miles runAvg speedWind from/ knotsBaromVisibWave heightAir tempDewpointWater temp
2014-Oct-29 16:28N 54°36' W 008°27'910.3
2014-Oct-29 15:33N 54°37' W 008°44'1 1.2
2014-Oct-29 14:26N 54°37' W 008°46'1 0.3
2014-Oct-29 10:31N 54°37' W 008°44'9 8.7
2014-Oct-29 09:29N 54°36' W 008°29'1 0.1
2014-Oct-28 17:29N 54°37' W 008°27'8 8.1
2014-Oct-28 16:28N 54°35' W 008°41'3 3.1
2014-Oct-28 15:33N 54°37' W 008°45'5 1.3
2014-Oct-28 11:31N 54°36' W 008°36'4 4.0
2014-Oct-28 10:30N 54°36' W 008°29'3 2.7
2014-Oct-28 09:32N 54°38' W 008°27'  
2014-Oct-25 14:15N 54°38' W 008°27'0 0.0
2014-Oct-25 09:12N 54°38' W 008°27'0 0.0
2014-Oct-23 15:27N 54°38' W 008°27'0 0.2
2014-Oct-23 14:33N 54°38' W 008°27'0 0.1
2014-Oct-23 13:33N 54°38' W 008°27'0 0.0
2014-Oct-23 12:33N 54°38' W 008°27'0 0.0
2014-Oct-23 11:33N 54°38' W 008°27'0 0.0
2014-Oct-23 10:31N 54°38' W 008°27'  
Track history (hours):
 
Tides and Currents Weather Stations Pressure Air Temp Water Temp Dewpoint Dewpoint Depression Visibility Wind Speed Wind Dir Waves Ship Positions

Meridian

Last reported at 2014-Oct-29 16:28 UTC. Time now 2014-Oct-31 06:18 UTC.
Position N 54°36' W 008°27'.

Length 12 m.

Type: Fishing. MMSI: 250107450.

Date/timePositionNaut miles runAvg speedWind from/ knotsBaromVisibWave heightAir tempDewpointWater temp
2014-Oct-29 16:28N 54°36' W 008°27'910.3
2014-Oct-29 15:33N 54°37' W 008°44'1 1.2
2014-Oct-29 14:26N 54°37' W 008°46'1 0.3
2014-Oct-29 10:31N 54°37' W 008°44'9 8.7
2014-Oct-29 09:29N 54°36' W 008°29'1 0.1
2014-Oct-28 17:29N 54°37' W 008°27'8 8.1
2014-Oct-28 16:28N 54°35' W 008°41'3 3.1
2014-Oct-28 15:33N 54°37' W 008°45'5 1.3
2014-Oct-28 11:31N 54°36' W 008°36'4 4.0
2014-Oct-28 10:30N 54°36' W 008°29'3 2.7
2014-Oct-28 09:32N 54°38' W 008°27'  
2014-Oct-25 14:15N 54°38' W 008°27'0 0.0
2014-Oct-25 09:12N 54°38' W 008°27'0 0.0
2014-Oct-23 15:27N 54°38' W 008°27'0 0.2
2014-Oct-23 14:33N 54°38' W 008°27'0 0.1
2014-Oct-23 13:33N 54°38' W 008°27'0 0.0
2014-Oct-23 12:33N 54°38' W 008°27'0 0.0
2014-Oct-23 11:33N 54°38' W 008°27'0 0.0
2014-Oct-23 10:31N 54°38' W 008°27'  

Dump ship's entire track history